createdAt,value
2023-05-14T00:01:09.528Z,9.07
2023-05-14T00:10:08.415Z,8.40
2023-05-14T00:13:38.643Z,9.17
2023-05-14T00:17:16.801Z,8.65
2023-05-14T00:20:35.962Z,8.52
2023-05-14T00:23:50.630Z,7.90
2023-05-14T00:27:47.368Z,8.77
2023-05-14T00:30:53.079Z,8.43
2023-05-14T00:33:58.551Z,8.68
2023-05-14T00:37:12.745Z,8.73
2023-05-14T00:40:40.318Z,8.48
2023-05-14T00:43:47.872Z,8.43
2023-05-14T00:46:52.940Z,7.47
2023-05-14T00:50:18.261Z,7.72
2023-05-14T00:53:33.820Z,13.23
2023-05-14T01:00:40.253Z,7.90
2023-05-14T01:03:53.806Z,7.73
2023-05-14T01:07:15.425Z,7.32
2023-05-14T01:10:31.762Z,7.53
2023-05-14T01:14:09.608Z,7.03
2023-05-14T01:17:13.550Z,7.03
2023-05-14T01:20:19.269Z,7.07
2023-05-14T01:23:37.869Z,6.70
2023-05-14T01:27:00.064Z,7.32
2023-05-14T01:30:33.576Z,7.38
2023-05-14T01:33:42.971Z,7.03
2023-05-14T01:36:58.851Z,7.30
2023-05-14T01:40:08.399Z,6.68
2023-05-14T01:43:20.241Z,7.72
2023-05-14T01:46:26.327Z,6.80
2023-05-14T01:50:14.635Z,7.20
2023-05-14T01:57:38.118Z,6.70
2023-05-14T02:00:59.383Z,7.55
2023-05-14T02:04:15.820Z,7.57
2023-05-14T02:07:28.903Z,7.47
2023-05-14T02:10:54.821Z,7.57
2023-05-14T02:14:05.369Z,7.63
2023-05-14T02:17:18.187Z,7.40
2023-05-14T02:20:43.864Z,7.35
2023-05-14T02:23:50.708Z,7.22
2023-05-14T02:27:05.451Z,7.50
2023-05-14T02:34:28.484Z,7.57
2023-05-14T02:37:55.185Z,6.70
2023-05-14T02:41:02.896Z,7.07
2023-05-14T02:44:18.165Z,7.10
2023-05-14T02:48:07.452Z,7.10
2023-05-14T02:51:28.367Z,6.88
2023-05-14T02:54:57.300Z,6.93
2023-05-14T02:58:15.010Z,6.57
2023-05-14T03:01:22.349Z,7.17
2023-05-14T03:04:31.915Z,6.90
2023-05-14T03:07:59.607Z,6.32
2023-05-14T03:11:04.452Z,6.43
2023-05-14T03:14:19.011Z,6.72
2023-05-14T03:17:42.479Z,6.87
2023-05-14T03:20:54.827Z,6.78
2023-05-14T03:24:02.125Z,6.93
2023-05-14T03:27:09.267Z,6.05
2023-05-14T03:30:20.065Z,6.15
2023-05-14T03:33:35.935Z,6.23
2023-05-14T03:36:59.121Z,5.95
2023-05-14T03:40:26.297Z,6.40
2023-05-14T03:47:05.621Z,6.00
2023-05-14T03:50:12.787Z,6.17
2023-05-14T03:53:19.982Z,5.95
2023-05-14T03:56:26.736Z,5.78
2023-05-14T03:59:37.228Z,5.72
2023-05-14T04:03:06.391Z,5.72
2023-05-14T04:06:43.770Z,5.63
2023-05-14T04:10:17.491Z,6.03
2023-05-14T04:13:41.295Z,5.45
2023-05-14T04:16:56.861Z,6.00
2023-05-14T04:20:25.076Z,5.90
2023-05-14T04:23:38.550Z,5.33
2023-05-14T04:26:57.395Z,5.65
2023-05-14T04:30:06.357Z,5.53
2023-05-14T04:37:18.117Z,5.35
2023-05-14T04:40:27.922Z,5.13
2023-05-14T04:43:48.935Z,4.97
2023-05-14T04:47:06.689Z,5.15
2023-05-14T04:50:36.388Z,4.80
2023-05-14T04:57:23.111Z,5.53
2023-05-14T05:00:30.994Z,5.07
2023-05-14T05:03:40.923Z,5.03
2023-05-14T05:07:13.941Z,4.95
2023-05-14T05:10:27.008Z,4.55
2023-05-14T05:13:51.526Z,4.93
2023-05-14T05:17:01.268Z,4.78
2023-05-14T05:20:16.446Z,4.43
2023-05-14T05:23:30.978Z,4.72
2023-05-14T05:26:41.390Z,5.10
2023-05-14T05:29:45.968Z,4.80
2023-05-14T05:33:02.124Z,4.75
2023-05-14T05:36:21.250Z,5.00
2023-05-14T05:39:35.294Z,4.95
2023-05-14T05:46:59.405Z,4.93
2023-05-14T05:50:07.737Z,4.85
2023-05-14T05:53:23.934Z,5.55
2023-05-14T05:56:35.120Z,5.00
2023-05-14T06:00:19.762Z,5.13
2023-05-14T06:03:42.138Z,5.30
2023-05-14T06:07:05.138Z,5.53
2023-05-14T06:10:13.140Z,5.13
2023-05-14T06:13:30.736Z,5.20
2023-05-14T06:17:02.187Z,5.20
2023-05-14T06:20:15.618Z,5.50
2023-05-14T06:23:42.419Z,5.30
2023-05-14T06:27:33.308Z,5.35
2023-05-14T06:30:50.350Z,5.47
2023-05-14T06:34:22.060Z,5.50
2023-05-14T06:37:36.515Z,5.50
2023-05-14T06:40:57.288Z,5.80
2023-05-14T06:44:10.454Z,6.38
2023-05-14T06:47:31.070Z,5.72
2023-05-14T06:50:45.849Z,5.65
2023-05-14T06:53:51.684Z,6.40
2023-05-14T06:57:06.042Z,6.53
2023-05-14T07:00:24.022Z,5.93
2023-05-14T07:08:19.898Z,6.13
2023-05-14T07:11:41.062Z,6.27
2023-05-14T07:14:52.192Z,6.53
2023-05-14T07:18:11.573Z,6.18
2023-05-14T07:21:22.725Z,6.07
2023-05-14T07:24:41.280Z,6.15
2023-05-14T07:27:55.987Z,5.73
2023-05-14T07:31:11.726Z,5.72
2023-05-14T07:34:22.864Z,5.82
2023-05-14T07:42:31.764Z,5.95
2023-05-14T07:45:40.479Z,5.50
2023-05-14T07:48:47.869Z,6.30
2023-05-14T07:52:01.809Z,5.88
2023-05-14T07:55:18.353Z,5.93
2023-05-14T07:58:41.602Z,6.30
2023-05-14T08:02:07.363Z,5.90
2023-05-14T08:05:22.383Z,5.70
2023-05-14T08:08:31.313Z,5.72
2023-05-14T08:11:36.769Z,6.00
2023-05-14T08:14:47.556Z,5.70
2023-05-14T08:17:57.652Z,6.00
2023-05-14T08:21:04.585Z,6.15
2023-05-14T08:24:11.853Z,5.47
2023-05-14T08:27:27.797Z,6.65
2023-05-14T08:30:35.475Z,5.85
2023-05-14T08:33:58.643Z,6.40
2023-05-14T08:37:23.767Z,6.25
2023-05-14T08:40:44.400Z,6.30
2023-05-14T08:44:18.455Z,5.78
2023-05-14T08:47:25.652Z,6.30
2023-05-14T08:54:28.276Z,6.63
2023-05-14T08:57:40.571Z,6.10
2023-05-14T09:00:45.627Z,6.35
2023-05-14T09:04:07.234Z,6.13
2023-05-14T09:07:32.753Z,6.60
2023-05-14T09:11:04.785Z,6.78
2023-05-14T09:14:36.248Z,5.97
2023-05-14T09:18:02.803Z,6.55
2023-05-14T09:21:17.857Z,6.72
2023-05-14T09:24:35.914Z,6.33
2023-05-14T09:27:58.632Z,6.88
2023-05-14T09:31:31.973Z,6.57
2023-05-14T09:34:50.237Z,6.88
2023-05-14T09:38:13.791Z,6.80
2023-05-14T09:41:36.461Z,6.77
2023-05-14T09:44:46.600Z,6.88
2023-05-14T09:47:49.863Z,6.85
2023-05-14T09:50:53.316Z,6.57
2023-05-14T09:53:56.379Z,6.38
2023-05-14T09:57:06.535Z,7.37
2023-05-14T10:00:27.380Z,6.85
2023-05-14T10:03:48.156Z,6.50
2023-05-14T10:07:08.161Z,6.95
2023-05-14T10:15:43.073Z,7.27
2023-05-14T10:18:57.623Z,7.20
2023-05-14T10:22:15.653Z,6.53
2023-05-14T10:25:33.224Z,7.00
2023-05-14T10:28:39.085Z,7.97
2023-05-14T10:31:52.109Z,7.43
2023-05-14T10:35:02.694Z,8.10
2023-05-14T10:38:10.483Z,7.82
2023-05-14T10:41:18.233Z,7.22
2023-05-14T10:44:22.093Z,8.43
2023-05-14T10:47:39.210Z,7.80
2023-05-14T10:50:57.554Z,7.95
2023-05-14T10:54:21.443Z,7.75
2023-05-14T10:57:46.108Z,7.43
2023-05-14T11:01:07.176Z,7.50
2023-05-14T11:04:32.308Z,7.70
2023-05-14T11:07:56.976Z,7.60
2023-05-14T11:11:00.378Z,7.60
2023-05-14T11:14:05.611Z,7.97
2023-05-14T11:17:10.659Z,7.95
2023-05-14T11:20:27.890Z,7.73
2023-05-14T11:23:37.948Z,8.13
2023-05-14T11:26:42.309Z,8.60
2023-05-14T11:29:48.759Z,8.93
2023-05-14T11:32:53.186Z,9.43
2023-05-14T11:35:57.718Z,9.70
2023-05-14T11:39:07.385Z,9.20
2023-05-14T11:42:29.574Z,9.45
2023-05-14T11:45:50.568Z,11.45
2023-05-14T11:48:53.941Z,9.93
2023-05-14T11:52:03.669Z,9.17
2023-05-14T11:55:13.095Z,7.63
2023-05-14T11:58:26.593Z,9.10
2023-05-14T12:01:41.162Z,9.55
2023-05-14T12:04:49.850Z,9.27
2023-05-14T12:07:57.428Z,8.77
2023-05-14T12:11:09.818Z,7.80
2023-05-14T12:14:22.491Z,7.93
2023-05-14T12:17:33.274Z,7.90
2023-05-14T12:20:37.345Z,8.43
2023-05-14T12:23:48.596Z,7.93
2023-05-14T12:26:55.783Z,7.70
2023-05-14T12:33:24.078Z,8.13
2023-05-14T12:36:28.796Z,9.15
2023-05-14T12:39:34.394Z,8.30
2023-05-14T12:42:38.265Z,8.50
2023-05-14T12:45:49.296Z,8.27
2023-05-14T12:49:09.031Z,8.18
2023-05-14T12:55:22.400Z,9.00
2023-05-14T12:58:26.055Z,8.43
2023-05-14T13:01:49.022Z,8.65
2023-05-14T13:05:18.165Z,8.60
2023-05-14T13:08:26.565Z,8.88
2023-05-14T13:11:42.876Z,9.17
2023-05-14T13:15:03.725Z,9.80
2023-05-14T13:18:18.830Z,10.95
2023-05-14T13:21:28.489Z,9.23
2023-05-14T13:24:32.806Z,9.27
2023-05-14T13:27:37.325Z,9.03
2023-05-14T13:31:20.658Z,9.60
2023-05-14T13:34:23.900Z,8.95
2023-05-14T13:37:39.719Z,8.75
2023-05-14T13:41:03.496Z,8.98
2023-05-14T13:44:20.250Z,8.13
2023-05-14T13:47:23.854Z,8.75
2023-05-14T13:50:33.838Z,9.25
2023-05-14T13:53:36.966Z,9.30
2023-05-14T13:56:41.473Z,8.57
2023-05-14T13:59:51.236Z,7.70
2023-05-14T14:03:01.379Z,7.75
2023-05-14T14:06:17.446Z,8.57
2023-05-14T14:09:41.064Z,8.40
2023-05-14T14:12:45.260Z,9.40
2023-05-14T14:15:49.159Z,9.87
2023-05-14T14:19:09.651Z,8.70
2023-05-14T14:22:19.201Z,9.30
2023-05-14T14:25:22.677Z,9.25
2023-05-14T14:28:29.197Z,9.50
2023-05-14T14:31:45.557Z,10.13
2023-05-14T14:35:05.981Z,9.68
2023-05-14T14:38:16.171Z,9.10
2023-05-14T14:41:19.742Z,9.27
2023-05-14T14:44:31.133Z,9.25
2023-05-14T14:47:36.649Z,6.90
2023-05-14T14:50:40.353Z,6.80
2023-05-14T14:53:48.677Z,7.80
2023-05-14T14:57:02.996Z,6.90
2023-05-14T15:00:18.031Z,7.10
2023-05-14T15:03:31.733Z,8.13
2023-05-14T15:06:38.600Z,6.13
2023-05-14T15:09:49.624Z,5.57
2023-05-14T15:13:13.297Z,5.80
2023-05-14T15:16:29.696Z,4.80
2023-05-14T15:19:52.502Z,4.97
2023-05-14T15:23:25.871Z,4.38
2023-05-14T15:26:44.498Z,4.30
2023-05-14T15:29:47.722Z,5.10
2023-05-14T15:33:10.369Z,4.63
2023-05-14T15:36:46.496Z,5.33
2023-05-14T15:39:53.427Z,5.07
2023-05-14T15:43:04.331Z,5.63
2023-05-14T15:46:08.242Z,5.47
2023-05-14T15:49:24.363Z,5.65
2023-05-14T15:52:45.498Z,5.50
2023-05-14T15:56:01.458Z,5.50
2023-05-14T15:59:04.731Z,5.80
2023-05-14T16:02:09.431Z,5.85
2023-05-14T16:05:14.618Z,5.80
2023-05-14T16:08:31.133Z,6.20
2023-05-14T16:11:48.936Z,5.70
2023-05-14T16:15:11.959Z,5.45
2023-05-14T16:18:28.435Z,5.35
2023-05-14T16:21:34.612Z,4.65
2023-05-14T16:24:37.879Z,4.47
2023-05-14T16:27:58.218Z,5.13
2023-05-14T16:31:15.761Z,5.00
2023-05-14T16:34:39.266Z,5.40
2023-05-14T16:37:51.823Z,4.40
2023-05-14T16:40:55.150Z,4.43
2023-05-14T16:44:01.695Z,4.55
2023-05-14T16:47:15.768Z,4.30
2023-05-14T16:50:19.446Z,4.22
2023-05-14T16:53:23.517Z,4.50
2023-05-14T16:56:39.873Z,4.27
2023-05-14T17:00:03.069Z,4.00
2023-05-14T17:03:22.374Z,4.10
2023-05-14T17:06:32.095Z,4.57
2023-05-14T17:09:36.059Z,4.22
2023-05-14T17:12:40.487Z,4.13
2023-05-14T17:15:43.591Z,4.38
2023-05-14T17:18:48.022Z,4.28
2023-05-14T17:22:04.464Z,4.35
2023-05-14T17:25:19.202Z,4.10
2023-05-14T17:28:42.027Z,4.43
2023-05-14T17:32:03.967Z,4.55
2023-05-14T17:35:07.989Z,5.10
2023-05-14T17:38:11.549Z,5.25
2023-05-14T17:41:21.778Z,4.80
2023-05-14T17:44:38.569Z,5.20
2023-05-14T17:47:44.538Z,5.28
2023-05-14T17:50:48.702Z,5.40
2023-05-14T17:53:56.748Z,5.05
2023-05-14T17:57:18.159Z,5.63
2023-05-14T18:00:21.471Z,5.57
2023-05-14T18:03:44.030Z,5.70
2023-05-14T18:07:18.030Z,5.80
2023-05-14T18:10:41.021Z,5.93
2023-05-14T18:14:06.108Z,5.63
2023-05-14T18:17:09.517Z,10.83
2023-05-14T18:20:34.118Z,6.32
2023-05-14T18:24:08.119Z,6.35
2023-05-14T18:27:30.880Z,6.80
2023-05-14T18:30:35.459Z,6.53
2023-05-14T18:33:39.059Z,6.13
2023-05-14T18:36:48.340Z,5.85
2023-05-14T18:39:58.764Z,6.18
2023-05-14T18:43:22.834Z,6.32
2023-05-14T18:46:47.885Z,6.45
2023-05-14T18:50:05.689Z,6.73
2023-05-14T18:53:22.165Z,6.90
2023-05-14T18:56:47.865Z,6.43
2023-05-14T19:00:11.763Z,6.68
2023-05-14T19:03:21.278Z,6.10
2023-05-14T19:06:25.860Z,6.70
2023-05-14T19:09:29.576Z,6.20
2023-05-14T19:12:33.669Z,6.88
2023-05-14T19:15:39.287Z,7.90
2023-05-14T19:18:43.065Z,7.00
2023-05-14T19:21:47.165Z,7.10
2023-05-14T19:24:53.522Z,7.15
2023-05-14T19:28:02.283Z,6.80
2023-05-14T19:31:16.115Z,7.68
2023-05-14T19:34:24.596Z,8.00
2023-05-14T19:37:28.015Z,7.83
2023-05-14T19:40:38.586Z,7.47
2023-05-14T19:43:42.593Z,7.70
2023-05-14T19:46:54.169Z,7.70
2023-05-14T19:50:05.148Z,7.55
2023-05-14T19:53:12.212Z,7.13
2023-05-14T19:56:16.380Z,7.05
2023-05-14T19:59:25.162Z,7.80
2023-05-14T20:02:41.182Z,7.28
2023-05-14T20:05:57.754Z,6.72
2023-05-14T20:09:20.797Z,7.50
2023-05-14T20:12:41.633Z,6.93
2023-05-14T20:16:04.809Z,6.57
2023-05-14T20:19:30.635Z,6.40
2023-05-14T20:22:57.880Z,6.47
2023-05-14T20:26:20.757Z,6.63
2023-05-14T20:29:39.900Z,6.72
2023-05-14T20:33:01.915Z,6.38
2023-05-14T20:36:12.235Z,6.25
2023-05-14T20:39:16.568Z,7.13
2023-05-14T20:42:21.404Z,6.60
2023-05-14T20:45:38.275Z,6.75
2023-05-14T20:48:55.372Z,7.38
2023-05-14T20:52:15.494Z,5.97
2023-05-14T20:55:38.498Z,6.25
2023-05-14T20:59:01.538Z,6.90
2023-05-14T21:02:17.861Z,6.38
2023-05-14T21:05:44.423Z,6.53
2023-05-14T21:08:58.255Z,7.03
2023-05-14T21:12:02.486Z,6.68
2023-05-14T21:15:07.307Z,7.30
2023-05-14T21:18:22.742Z,7.78
2023-05-14T21:21:26.350Z,8.65
2023-05-14T21:24:29.705Z,8.90
2023-05-14T21:27:43.671Z,9.85
2023-05-14T21:30:53.466Z,9.80
2023-05-14T21:33:57.518Z,10.43
2023-05-14T21:37:09.089Z,10.15
2023-05-14T21:40:21.130Z,9.13
2023-05-14T21:43:28.647Z,7.10
2023-05-14T21:46:33.959Z,8.20
2023-05-14T21:49:38.373Z,7.03
2023-05-14T21:52:54.439Z,6.45
2023-05-14T21:56:15.356Z,6.38
2023-05-14T21:59:36.470Z,6.35
2023-05-14T22:02:59.409Z,5.63
2023-05-14T22:06:13.291Z,5.53
2023-05-14T22:09:24.518Z,5.97
2023-05-14T22:12:36.096Z,4.82
2023-05-14T22:15:47.395Z,4.60
2023-05-14T22:19:06.762Z,4.90
2023-05-14T22:22:23.984Z,4.72
2023-05-14T22:25:40.616Z,4.60
2023-05-14T22:28:47.883Z,5.13
2023-05-14T22:31:53.196Z,4.95
2023-05-14T22:35:02.013Z,5.47
2023-05-14T22:38:17.738Z,5.13
2023-05-14T22:41:40.473Z,5.40
2023-05-14T22:45:02.621Z,5.47
2023-05-14T22:48:06.123Z,5.20
2023-05-14T22:51:16.708Z,6.03
2023-05-14T22:54:28.053Z,5.30
2023-05-14T22:57:44.348Z,5.60
2023-05-14T23:01:01.259Z,5.90
2023-05-14T23:04:24.153Z,5.32
2023-05-14T23:07:47.373Z,6.47
2023-05-14T23:10:59.148Z,6.57
2023-05-14T23:14:03.568Z,6.13
2023-05-14T23:17:10.386Z,6.15
2023-05-14T23:20:23.955Z,6.20
2023-05-14T23:23:40.480Z,6.33
2023-05-14T23:27:00.351Z,6.65
2023-05-14T23:30:27.154Z,6.93
2023-05-14T23:33:41.665Z,6.47
2023-05-14T23:36:49.799Z,6.88
2023-05-14T23:39:53.924Z,7.40
2023-05-14T23:43:03.928Z,7.47
2023-05-14T23:46:08.482Z,7.50
2023-05-14T23:49:12.952Z,7.60
2023-05-14T23:52:19.883Z,8.30
2023-05-14T23:55:40.217Z,8.30
2023-05-14T23:58:47.708Z,8.07
